Hauptseite
METAR-TAF:

METAR-TAF

Flughäfen :

Düsseldorf Airport

Düsseldorf, Deutschland

Breite: 51-18N, Länge: 006-46E, Höhe: 45 m

Beobachtung

Neuester Wetterbericht von vor 14 Minuten, um 11:50 UTC
Wind 4 kt aus Ost, variierte zwischen Nordost und Süd/Südost
Temperatur 5°C
Luftfeuchtigkeit 70%
Luftdruck 1016 hPa
Sichtweite 10 km oder mehr
keine Wolken unter 1500 m und keine Kumulonimbus oder Gewitterwolken

METAR: EDDL 211150Z 10004KT 040V150 CAVOK 05/M00 Q1016 NOSIG

Zeit: 13:04 (12:04 UTC)

Prognose

Neuester Wetterbericht von vor 1 Stunde und 4 Minuten, um 11:00 UTC
Gültige Prognose vom 21 um 12 UTC bis 22 um 18 UTC
Wind 5 kt aus Ost/Nordost
Sichtweite 10 km oder mehr
Aufgelockert bewölkt in der Höhe von 2000 ft
Übergehend zu
vom 22 um 09 UTC bis 22 um 12 UTC
Wind 5 kt aus Südost

TAF: EDDL 211100Z 2112/2218 07005KT 9999 SCT020 BECMG 2209/2212 13005KT

Wetterbeobachtungen und Prognosen von mehr als 4000 Flughäfen (METAR und TAF Bericht).

Die verfügbaren Stationen werden durch gelbe und rote Markierungen auf der Karte dargestellt.

Führen Sie die Maus auf sie, um den Namen der Station zu sehen.

Darauf klicken, um die Beobachtung von Wetterbeobachtungen und Prognosen zu sehen.

Um die Karte zu ändern : klicken Sie auf den grünen Tasten mit einem schwarzen Kreuz Zum Vergrößern, auf den grünen Button mit einem Gedankenstrich zu verkleinern, oder auf die grünen Pfeile für benachbarte Karten.


METAR-TAF: